Time;durP1;ratioP1;P1;durP2;ratioP2;P2;SDS_P1;SDS_P2;PMS_P1;PMS_P2;Temp;Humidity;BMP_temperature;BMP_pressure;BME280_temperature;BME280_humidity;BME280_pressure;Samples;Min_cycle;Max_cycle;Signal;HPM_P1;HPM_P2
2023/01/22 00:01:30;;;;;;;;;;;;;;;;;;5015219;28;19921;-70
2023/01/22 00:03:56;;;;;;;;;;;;;;;;;;5015392;28;19937;-70
2023/01/22 00:06:22;;;;;;;;;;;;;;;;;;5015219;28;19921;-70
2023/01/22 00:08:48;;;;;;;;;;;;;;;;;;4997697;28;19922;-71
2023/01/22 00:11:14;;;;;;;;;;;;;;;;;;4997715;28;19921;-71
2023/01/22 00:13:39;;;;;;;;;;;1.60;99.90;;;;;;5015227;28;20319;-71
2023/01/22 00:16:05;;;;;;;;;;;1.60;99.90;;;;;;5017366;28;19939;-71
2023/01/22 00:18:31;;;;;;;;;;;1.70;99.90;;;;;;5055030;28;19970;-71
2023/01/22 00:20:57;;;;;;;;;;;;;;;;;;5036856;28;19920;-71
2023/01/22 00:23:23;;;;;;;;;;;;;;;;;;5037288;28;19925;-71
2023/01/22 00:25:49;;;;;;;;;;;;;;;;;;5020219;28;20401;-71
2023/01/22 00:28:15;;;;;;;;;;;;;;;;;;5054714;28;20112;-71
2023/01/22 00:30:41;;;;;;;;;;;;;;;;;;5036456;28;20333;-71
2023/01/22 00:33:07;;;;;;;;;;;1.70;99.90;;;;;;5036961;28;19925;-71
2023/01/22 00:35:33;;;;;;;;;;;1.40;99.90;;;;;;5036459;28;19929;-70
2023/01/22 00:37:59;;;;;;;;;;;1.50;99.90;;;;;;5036626;28;20398;-71
2023/01/22 00:40:24;;;;;;;;;;;1.40;99.90;;;;;;5036513;28;20017;-71
2023/01/22 00:42:50;;;;;;;;;;;;;;;;;;5036498;28;19921;-71
2023/01/22 00:45:16;;;;;;;;;;;;;;;;;;5036007;28;19976;-71
2023/01/22 00:47:42;;;;;;;;;;;;;;;;;;5036454;28;20612;-70
2023/01/22 00:50:08;;;;;;;;;;;1.70;99.90;;;;;;5054284;28;20452;-70
2023/01/22 00:52:34;;;;;;;;;;;1.40;99.90;;;;;;5036028;28;19921;-71
2023/01/22 00:54:59;;;;;;;;;;;1.50;99.90;;;;;;5036270;28;19925;-71
2023/01/22 00:57:25;;;;;;;;;;;;;;;;;;5036311;28;20373;-71
2023/01/22 00:59:52;;;;;;;;;;;;;;;;;;5053926;28;20015;-70
2023/01/22 01:02:18;;;;;;;;;;;;;;;;;;5036283;28;19920;-71
2023/01/22 01:04:43;;;;;;;;;;;;;;;;;;5036037;28;20019;-71
2023/01/22 01:07:09;;;;;;;;;;;;;;;;;;5053758;28;20012;-70
2023/01/22 01:09:35;;;;;;;;;;;;;;;;;;5019486;28;19928;-70
2023/01/22 01:12:01;;;;;;;;;;;1.30;99.90;;;;;;5053640;28;20344;-70
2023/01/22 01:14:27;;;;;;;;;;;;;;;;;;5019415;28;19921;-70
2023/01/22 01:16:52;;;;;;;;;;;;;;;;;;5018904;28;20030;-71
2023/01/22 01:19:21;;;;;;;;;;;;;;;;;;5035810;28;20018;-70
2023/01/22 01:21:47;;;;;;;;;;;1.50;99.90;;;;;;5019379;28;20294;-70
2023/01/22 01:24:13;;;;;;;;;;;1.40;99.90;;;;;;5053607;28;19925;-71
2023/01/22 01:26:39;;;;;;;;;;;;;;;;;;5053194;28;19920;-71
2023/01/22 01:29:06;;;;;;;;;;;;;;;;;;5053462;28;19952;-70
2023/01/22 01:31:32;;;;;;;;;;;1.30;99.90;;;;;;5053219;28;19921;-71
2023/01/22 01:33:58;;;;;;;;;;;1.40;99.90;;;;;;5035470;28;19927;-70
2023/01/22 01:36:24;;;;;;;;;;;1.50;99.90;;;;;;5053061;28;19965;-70
2023/01/22 01:38:50;;;;;;;;;;;1.20;99.90;;;;;;5035540;28;19921;-71
2023/01/22 01:41:19;;;;;;;;;;;1.10;99.90;;;;;;5053028;28;19921;-71
2023/01/22 01:43:45;;;;;;;;;;;1.20;99.90;;;;;;5053120;28;20008;-71
2023/01/22 01:46:28;;;;;;;;;;;1.20;99.90;;;;;;5053000;28;19974;-71
2023/01/22 01:48:54;;;;;;;;;;;;;;;;;;5053284;28;19943;-71
2023/01/22 01:51:20;;;;;;;;;;;;;;;;;;5035192;28;20007;-70
2023/01/22 01:53:46;;;;;;;;;;;;;;;;;;5053126;28;19925;-70
2023/01/22 01:56:14;;;;;;;;;;;1.10;99.90;;;;;;5034624;28;19991;-70
2023/01/22 01:58:41;;;;;;;;;;;1.20;99.90;;;;;;5035141;28;19974;-71
2023/01/22 02:01:07;;;;;;;;;;;;;;;;;;5035214;28;19920;-71
2023/01/22 02:03:33;;;;;;;;;;;;;;;;;;5034270;28;19925;-71
2023/01/22 02:05:58;;;;;;;;;;;0.80;99.90;;;;;;5034636;28;19928;-71
2023/01/22 02:08:24;;;;;;;;;;;1.30;99.90;;;;;;5018387;28;20126;-71
2023/01/22 02:10:50;;;;;;;;;;;;;;;;;;5034811;28;19991;-70
2023/01/22 02:13:15;;;;;;;;;;;;;;;;;;5052879;28;19921;-70
2023/01/22 02:15:41;;;;;;;;;;;;;;;;;;5018061;28;20413;-70
2023/01/22 02:18:07;;;;;;;;;;;1.20;99.90;;;;;;5034929;28;19975;-70
2023/01/22 02:20:33;;;;;;;;;;;;;;;;;;5034775;28;19928;-70
2023/01/22 02:22:58;;;;;;;;;;;1.30;99.90;;;;;;5034566;28;19927;-70
2023/01/22 02:25:24;;;;;;;;;;;;;;;;;;5034092;28;19921;-70
2023/01/22 02:27:50;;;;;;;;;;;1.50;99.90;;;;;;5034738;28;20004;-70
2023/01/22 02:30:15;;;;;;;;;;;1.30;99.90;;;;;;5034610;28;19921;-70
2023/01/22 02:32:41;;;;;;;;;;;1.30;99.90;;;;;;5052447;28;19925;-70
2023/01/22 02:35:07;;;;;;;;;;;;;;;;;;5052144;28;19925;-69
2023/01/22 02:37:33;;;;;;;;;;;;;;;;;;5017847;28;20074;-70
2023/01/22 02:39:58;;;;;;;;;;;1.20;99.90;;;;;;5034555;28;19921;-70
2023/01/22 02:42:25;;;;;;;;;;;;;;;;;;5034844;28;19921;-70
2023/01/22 02:44:51;;;;;;;;;;;1.30;99.90;;;;;;5034768;28;20290;-70
2023/01/22 02:47:17;;;;;;;;;;;1.30;99.90;;;;;;5034466;28;20293;-70
2023/01/22 02:49:43;;;;;;;;;;;;;;;;;;5034718;28;20015;-70
2023/01/22 02:52:08;;;;;;;;;;;1.50;99.90;;;;;;5034296;28;19927;-70
2023/01/22 02:54:34;;;;;;;;;;;;;;;;;;5017762;28;20308;-70
2023/01/22 02:57:00;;;;;;;;;;;;;;;;;;5034179;28;19924;-69
2023/01/22 02:59:26;;;;;;;;;;;;;;;;;;5034417;28;20410;-70
2023/01/22 03:01:52;;;;;;;;;;;;;;;;;;5052039;28;19921;-70
2023/01/22 03:04:18;;;;;;;;;;;1.50;99.90;;;;;;5017663;28;20003;-70
2023/01/22 03:06:44;;;;;;;;;;;1.40;99.90;;;;;;5034101;28;19927;-70
2023/01/22 03:09:10;;;;;;;;;;;1.60;99.90;;;;;;5033927;28;19920;-69
2023/01/22 03:11:37;;;;;;;;;;;1.50;99.90;;;;;;5034288;28;20332;-69
2023/01/22 03:22:15;;;;;;;;;;;1.60;99.90;;;;;;5038049;28;19967;-69
2023/01/22 03:24:42;;;;;;;;;;;1.60;99.90;;;;;;5055863;28;19921;-69
2023/01/22 03:27:07;;;;;;;;;;;1.50;99.90;;;;;;5037930;28;20264;-70
2023/01/22 03:29:37;;;;;;;;;;;1.70;99.90;;;;;;5037948;28;19931;-70
2023/01/22 03:32:03;;;;;;;;;;;;;;;;;;5055473;28;20475;-69
2023/01/22 03:34:29;;;;;;;;;;;;;;;;;;5037716;28;19928;-71
2023/01/22 03:36:54;;;;;;;;;;;;;;;;;;5037604;28;19971;-69
2023/01/22 03:39:20;;;;;;;;;;;1.70;99.90;;;;;;5037572;28;20356;-69
2023/01/22 03:41:45;;;;;;;;;;;1.80;99.90;;;;;;5037581;28;19920;-70
2023/01/22 03:44:13;;;;;;;;;;;;;;;;;;5021023;28;19971;-70
2023/01/22 03:46:39;;;;;;;;;;;1.60;99.90;;;;;;5037229;28;19921;-69
2023/01/22 03:49:05;;;;;;;;;;;1.60;99.90;;;;;;5037868;28;19948;-70
2023/01/22 03:51:30;;;;;;;;;;;1.60;99.90;;;;;;5037749;28;20294;-69
2023/01/22 03:53:57;;;;;;;;;;;1.70;99.90;;;;;;5037694;28;19920;-70
2023/01/22 03:56:23;;;;;;;;;;;;;;;;;;5020492;28;19936;-70
2023/01/22 03:58:48;;;;;;;;;;;1.70;99.90;;;;;;5055245;28;19921;-70
2023/01/22 04:01:14;;;;;;;;;;;;;;;;;;5054946;28;19960;-70
2023/01/22 04:03:40;;;;;;;;;;;;;;;;;;5055324;28;19925;-70
2023/01/22 04:06:06;;;;;;;;;;;;;;;;;;5036849;28;20289;-70
2023/01/22 04:08:32;;;;;;;;;;;2.00;99.90;;;;;;5055098;28;20345;-70
2023/01/22 04:10:58;;;;;;;;;;;1.90;99.90;;;;;;5054850;28;20398;-70
2023/01/22 04:13:24;;;;;;;;;;;2.20;99.90;;;;;;5037150;28;19920;-70
2023/01/22 04:15:50;;;;;;;;;;;2.10;99.90;;;;;;5036581;28;19932;-70
2023/01/22 04:18:15;;;;;;;;;;;1.90;99.90;;;;;;5055186;28;19924;-70
2023/01/22 04:20:41;;;;;;;;;;;;;;;;;;5020650;28;20348;-70
2023/01/22 04:23:07;;;;;;;;;;;2.20;99.90;;;;;;5020327;28;19921;-70
2023/01/22 04:25:33;;;;;;;;;;;2.10;99.90;;;;;;5054449;28;19925;-70
2023/01/22 04:27:59;;;;;;;;;;;2.10;99.90;;;;;;5035987;28;20007;-70
2023/01/22 04:30:24;;;;;;;;;;;;;;;;;;5082580;22;20450;-70
2023/01/22 04:32:50;;;;;;;;;;;;;;;;;;5058114;28;20468;-67
2023/01/22 04:35:16;;;;;;;;;;;;;;;;;;5076290;28;19943;-67
2023/01/22 04:37:42;;;;;;;;;;;;;;;;;;5094823;28;19924;-67
2023/01/22 04:40:08;;;;;;;;;;;2.00;99.90;;;;;;5076610;28;19920;-66
2023/01/22 04:42:34;;;;;;;;;;;2.10;99.90;;;;;;5076360;28;19920;-66
2023/01/22 04:44:59;;;;;;;;;;;2.10;99.90;;;;;;5076648;28;20289;-67
2023/01/22 04:47:25;;;;;;;;;;;;;;;;;;5059405;28;19970;-69
2023/01/22 04:49:51;;;;;;;;;;;;;;;;;;5094751;28;19931;-67
2023/01/22 04:52:17;;;;;;;;;;;2.10;99.90;;;;;;5094464;28;19920;-67
2023/01/22 04:54:43;;;;;;;;;;;;;;;;;;5094544;28;19920;-67
2023/01/22 04:57:08;;;;;;;;;;;2.20;99.90;;;;;;5094067;28;19924;-67
2023/01/22 04:59:34;;;;;;;;;;;1.90;99.90;;;;;;5094184;28;19920;-67
2023/01/22 05:02:00;;;;;;;;;;;;;;;;;;5075979;28;19927;-68
2023/01/22 05:04:26;;;;;;;;;;;;;;;;;;5094454;28;19920;-67
2023/01/22 05:06:51;;;;;;;;;;;2.10;99.90;;;;;;5093938;28;20355;-67
2023/01/22 05:09:17;;;;;;;;;;;;;;;;;;5075885;28;19928;-67
2023/01/22 05:11:43;;;;;;;;;;;2.30;99.90;;;;;;5093970;28;19965;-67
2023/01/22 05:14:08;;;;;;;;;;;;;;;;;;5075867;28;19920;-68
2023/01/22 05:16:34;;;;;;;;;;;;;;;;;;5093811;28;20470;-66
2023/01/22 05:19:00;;;;;;;;;;;2.00;99.90;;;;;;5075769;28;19924;-67
2023/01/22 05:21:25;;;;;;;;;;;2.10;99.90;;;;;;5075962;28;19927;-67
2023/01/22 05:23:51;;;;;;;;;;;;;;;;;;5093918;28;19978;-68
2023/01/22 05:26:17;;;;;;;;;;;;;;;;;;5075374;28;19927;-67
2023/01/22 05:28:43;;;;;;;;;;;2.00;99.90;;;;;;5075790;28;19927;-67
2023/01/22 05:31:09;;;;;;;;;;;2.00;99.90;;;;;;5075363;28;19920;-67
2023/01/22 05:33:35;;;;;;;;;;;2.10;99.90;;;;;;5075868;28;20349;-66
2023/01/22 05:36:01;;;;;;;;;;;2.20;99.90;;;;;;5058589;28;19928;-67
2023/01/22 05:38:27;;;;;;;;;;;;;;;;;;5075387;28;19935;-67
2023/01/22 05:40:52;;;;;;;;;;;2.10;99.90;;;;;;5075322;28;20340;-67
2023/01/22 05:43:18;;;;;;;;;;;;;;;;;;5093437;28;20003;-67
2023/01/22 05:45:44;;;;;;;;;;;2.30;99.90;;;;;;5058649;28;19927;-66
2023/01/22 05:48:09;;;;;;;;;;;2.30;99.90;;;;;;5075514;28;19920;-66
2023/01/22 05:50:35;;;;;;;;;;;;;;;;;;5075120;28;19950;-67
2023/01/22 05:53:01;;;;;;;;;;;;;;;;;;5093380;28;19924;-69
2023/01/22 05:55:27;;;;;;;;;;;;;;;;;;5074798;28;20305;-67
2023/01/22 05:57:52;;;;;;;;;;;2.10;99.90;;;;;;5074895;28;19931;-67
2023/01/22 06:00:18;;;;;;;;;;;;;;;;;;5074997;28;19927;-67
2023/01/22 06:02:44;;;;;;;;;;;2.50;99.90;;;;;;5074877;28;19927;-67
2023/01/22 06:05:10;;;;;;;;;;;;;;;;;;5092913;28;19924;-67
2023/01/22 06:07:36;;;;;;;;;;;;;;;;;;5074764;28;19938;-68
2023/01/22 06:10:02;;;;;;;;;;;;;;;;;;5074711;28;19922;-67
2023/01/22 06:12:27;;;;;;;;;;;2.40;99.90;;;;;;5092891;28;20331;-67
2023/01/22 06:14:53;;;;;;;;;;;;;;;;;;5074513;28;20377;-67
2023/01/22 06:17:19;;;;;;;;;;;2.30;99.90;;;;;;5074481;28;19978;-67
2023/01/22 06:19:45;;;;;;;;;;;;;;;;;;5074663;28;20297;-67
2023/01/22 06:22:11;;;;;;;;;;;;;;;;;;5074567;28;19939;-68
2023/01/22 06:24:37;;;;;;;;;;;;;;;;;;5074515;28;19998;-66
2023/01/22 06:27:03;;;;;;;;;;;;;;;;;;5074156;28;19924;-66
2023/01/22 06:29:28;;;;;;;;;;;2.30;99.90;;;;;;5092558;28;19928;-67
2023/01/22 06:31:54;;;;;;;;;;;2.30;99.90;;;;;;5074611;28;20297;-67
2023/01/22 06:34:20;;;;;;;;;;;2.10;99.90;;;;;;5092662;28;19920;-67
2023/01/22 06:36:46;;;;;;;;;;;;;;;;;;5074349;28;19927;-68
2023/01/22 06:39:12;;;;;;;;;;;;;;;;;;5065837;28;19924;-67
2023/01/22 06:41:38;;;;;;;;;;;;;;;;;;5091197;28;19927;-66
2023/01/22 06:44:03;;;;;;;;;;;2.20;99.90;;;;;;5091329;28;20017;-67
2023/01/22 06:46:29;;;;;;;;;;;2.20;99.90;;;;;;5092323;28;19953;-65
2023/01/22 06:48:55;;;;;;;;;;;;;;;;;;5092447;28;20010;-67
2023/01/22 06:51:21;;;;;;;;;;;;;;;;;;5090701;28;19957;-66
2023/01/22 06:53:47;;;;;;;;;;;;;;;;;;5092486;28;19927;-66
2023/01/22 06:56:13;;;;;;;;;;;;;;;;;;5091851;28;19927;-67
2023/01/22 06:58:38;;;;;;;;;;;2.20;99.90;;;;;;5091046;28;20454;-67
2023/01/22 07:01:04;;;;;;;;;;;;;;;;;;5084433;28;19924;-67
2023/01/22 07:03:29;;;;;;;;;;;2.00;99.90;;;;;;5073306;28;19920;-67
2023/01/22 07:05:56;;;;;;;;;;;;;;;;;;5073628;28;19920;-67
2023/01/22 07:08:22;;;;;;;;;;;;;;;;;;5074299;28;19924;-69
2023/01/22 07:10:48;;;;;;;;;;;;;;;;;;5074123;28;20520;-67
2023/01/22 07:13:14;;;;;;;;;;;2.30;99.90;;;;;;5073956;28;19920;-67
2023/01/22 07:15:40;;;;;;;;;;;;;;;;;;5056800;28;20404;-66
2023/01/22 07:18:06;;;;;;;;;;;;;;;;;;5073994;28;19924;-66
2023/01/22 07:20:32;;;;;;;;;;;;;;;;;;5073840;28;19920;-67
2023/01/22 07:23:01;;;;;;;;;;;2.20;99.90;;;;;;5073973;28;20297;-65
2023/01/22 07:25:26;;;;;;;;;;;;;;;;;;5073546;28;19920;-67
2023/01/22 07:27:57;;;;;;;;;;;2.30;99.90;;;;;;5074093;28;20305;-67
2023/01/22 07:30:22;;;;;;;;;;;2.40;99.90;;;;;;5091976;28;20077;-66
2023/01/22 07:32:48;;;;;;;;;;;;;;;;;;5057387;28;20364;-67
2023/01/22 07:35:13;;;;;;;;;;;2.30;99.90;;;;;;5056735;28;19920;-67
2023/01/22 07:37:39;;;;;;;;;;;;;;;;;;5073792;28;19924;-68
2023/01/22 07:40:05;;;;;;;;;;;2.20;99.90;;;;;;5073852;28;19954;-66
2023/01/22 07:42:31;;;;;;;;;;;2.50;99.90;;;;;;5073630;28;19927;-67
2023/01/22 07:44:56;;;;;;;;;;;2.50;99.90;;;;;;5091452;28;19920;-65
2023/01/22 07:47:22;;;;;;;;;;;;;;;;;;5056248;28;20369;-68
2023/01/22 07:49:48;;;;;;;;;;;;;;;;;;5085015;28;19947;-68
2023/01/22 07:52:14;;;;;;;;;;;;;;;;;;5085897;28;19928;-67
2023/01/22 07:54:39;;;;;;;;;;;2.40;99.90;;;;;;5071693;28;19920;-67
2023/01/22 07:57:05;;;;;;;;;;;;;;;;;;5072427;28;19981;-67
2023/01/22 07:59:31;;;;;;;;;;;2.30;99.90;;;;;;5090586;28;20517;-66
2023/01/22 08:01:57;;;;;;;;;;;;;;;;;;5057398;28;20373;-68
2023/01/22 08:04:23;;;;;;;;;;;;;;;;;;5076745;28;19920;-67
2023/01/22 08:06:49;;;;;;;;;;;;;;;;;;5061609;28;19921;-67
2023/01/22 08:09:22;;;;;;;;;;;2.50;99.90;;;;;;5056859;28;19920;-67
2023/01/22 08:11:48;;;;;;;;;;;;;;;;;;5056866;28;19920;-68
2023/01/22 08:14:13;;;;;;;;;;;;;;;;;;5056829;28;19927;-66
2023/01/22 08:16:39;;;;;;;;;;;2.50;99.90;;;;;;5074423;28;19928;-66
2023/01/22 08:19:04;;;;;;;;;;;2.30;99.90;;;;;;5074153;28;19951;-65
2023/01/22 08:21:30;;;;;;;;;;;;;;;;;;5074683;28;20011;-66
2023/01/22 08:23:56;;;;;;;;;;;;;;;;;;5074486;28;19927;-68
2023/01/22 08:26:22;;;;;;;;;;;;;;;;;;5074103;28;19928;-66
2023/01/22 08:28:48;;;;;;;;;;;;;;;;;;5057015;28;19974;-67
2023/01/22 08:31:14;;;;;;;;;;;;;;;;;;5056910;28;20439;-67
2023/01/22 08:33:40;;;;;;;;;;;2.40;99.90;;;;;;5064871;28;19927;-67
2023/01/22 08:36:05;;;;;;;;;;;;;;;;;;5074118;28;19921;-66
2023/01/22 08:38:31;;;;;;;;;;;;;;;;;;5068660;28;19973;-67
2023/01/22 08:40:57;;;;;;;;;;;;;;;;;;5094237;28;20454;-69
2023/01/22 08:43:23;;;;;;;;;;;;;;;;;;5094426;28;19920;-67
2023/01/22 08:45:49;;;;;;;;;;;2.30;99.90;;;;;;5074735;28;19920;-66
2023/01/22 08:48:15;;;;;;;;;;;;;;;;;;5073248;28;20301;-67
2023/01/22 08:50:40;;;;;;;;;;;2.40;99.90;;;;;;5062266;28;19992;-67
2023/01/22 08:53:06;;;;;;;;;;;;;;;;;;5073834;28;20390;-69
2023/01/22 08:55:32;;;;;;;;;;;;;;;;;;5073939;28;19920;-67
2023/01/22 08:57:57;;;;;;;;;;;2.30;99.90;;;;;;5073587;28;19930;-67
2023/01/22 09:00:23;;;;;;;;;;;;;;;;;;5078178;28;19943;-66
2023/01/22 09:02:49;;;;;;;;;;;2.40;99.90;;;;;;5054556;28;19991;-67
2023/01/22 09:05:15;;;;;;;;;;;;;;;;;;5053293;28;19928;-68
2023/01/22 09:07:41;;;;;;;;;;;;;;;;;;5093418;28;20012;-67
2023/01/22 09:10:07;;;;;;;;;;;2.30;99.90;;;;;;5074952;28;19973;-66
2023/01/22 09:12:33;;;;;;;;;;;;;;;;;;5075120;28;19924;-69
2023/01/22 09:14:59;;;;;;;;;;;;;;;;;;5058883;28;19981;-67
2023/01/22 09:17:25;;;;;;;;;;;2.20;99.90;;;;;;5057627;28;19924;-66
2023/01/22 09:19:50;;;;;;;;;;;;;;;;;;5088857;28;19928;-66
2023/01/22 09:22:16;;;;;;;;;;;;;;;;;;5067764;28;19920;-67
2023/01/22 09:24:42;;;;;;;;;;;;;;;;;;5064526;28;19938;-67
2023/01/22 09:27:08;;;;;;;;;;;;;;;;;;5071834;28;19965;-68
2023/01/22 09:29:34;;;;;;;;;;;;;;;;;;5088606;28;19920;-66
2023/01/22 09:32:00;;;;;;;;;;;;;;;;;;5090039;28;19989;-66
2023/01/22 09:34:25;;;;;;;;;;;2.40;99.90;;;;;;5088326;28;19973;-67
2023/01/22 09:36:51;;;;;;;;;;;2.60;99.90;;;;;;5070750;28;20407;-65
2023/01/22 09:39:17;;;;;;;;;;;;;;;;;;5068719;28;19928;-69
2023/01/22 09:41:43;;;;;;;;;;;;;;;;;;5065269;28;19978;-68
2023/01/22 09:44:36;;;;;;;;;;;2.70;99.90;;;;;;5053495;28;20583;-66
2023/01/22 09:47:02;;;;;;;;;;;;;;;;;;5061025;28;19924;-68
2023/01/22 09:49:28;;;;;;;;;;;;;;;;;;5085805;28;19924;-66
2023/01/22 09:51:54;;;;;;;;;;;;;;;;;;5062101;28;19925;-68
2023/01/22 09:54:20;;;;;;;;;;;;;;;;;;5081588;28;20200;-69
2023/01/22 09:56:46;;;;;;;;;;;;;;;;;;5085692;28;20388;-70
2023/01/22 09:59:11;;;;;;;;;;;;;;;;;;5047727;28;19939;-67
2023/01/22 10:01:37;;;;;;;;;;;;;;;;;;5054165;28;20337;-66
2023/01/22 10:04:03;;;;;;;;;;;;;;;;;;5093687;28;20428;-65
2023/01/22 10:06:30;;;;;;;;;;;;;;;;;;5075116;28;19976;-69
2023/01/22 10:09:00;;;;;;;;;;;2.60;99.90;;;;;;5075548;28;20016;-67
2023/01/22 10:11:26;;;;;;;;;;;;;;;;;;5044514;28;19966;-66
2023/01/22 10:13:52;;;;;;;;;;;;;;;;;;5065218;28;19924;-66
2023/01/22 10:16:18;;;;;;;;;;;;;;;;;;5051373;28;20289;-66
2023/01/22 10:18:44;;;;;;;;;;;;;;;;;;5077480;28;20038;-66
2023/01/22 10:21:10;;;;;;;;;;;;;;;;;;5089393;28;20320;-66
2023/01/22 10:23:36;;;;;;;;;;;;;;;;;;5069881;28;19924;-67
2023/01/22 10:26:02;;;;;;;;;;;;;;;;;;5080035;28;19924;-67
2023/01/22 10:28:28;;;;;;;;;;;;;;;;;;5053488;28;19927;-67
2023/01/22 10:30:57;;;;;;;;;;;;;;;;;;5094132;22;19931;-69
2023/01/22 10:33:23;;;;;;;;;;;;;;;;;;5047259;28;19923;-70
2023/01/22 10:35:49;;;;;;;;;;;;;;;;;;5052494;28;20321;-70
2023/01/22 10:38:15;;;;;;;;;;;;;;;;;;5033654;28;19920;-70
2023/01/22 10:40:41;;;;;;;;;;;;;;;;;;5065063;28;19935;-69
2023/01/22 10:43:06;;;;;;;;;;;;;;;;;;5053657;28;20095;-70
2023/01/22 10:45:32;;;;;;;;;;;;;;;;;;5067851;28;20664;-70
2023/01/22 10:47:58;;;;;;;;;;;;;;;;;;5052742;28;19920;-69
2023/01/22 10:50:24;;;;;;;;;;;;;;;;;;5050489;28;19967;-69
2023/01/22 10:52:50;;;;;;;;;;;;;;;;;;5067818;28;19971;-70
2023/01/22 10:55:16;;;;;;;;;;;;;;;;;;5068213;28;20071;-70
2023/01/22 10:57:42;;;;;;;;;;;;;;;;;;5035270;28;19978;-70
2023/01/22 11:00:08;;;;;;;;;;;;;;;;;;5049501;28;19920;-70
2023/01/22 11:02:34;;;;;;;;;;;;;;;;;;5050169;28;20283;-72
2023/01/22 11:05:00;;;;;;;;;;;;;;;;;;5032849;28;19943;-72
2023/01/22 11:07:26;;;;;;;;;;;;;;;;;;5050433;28;19935;-72
2023/01/22 11:09:52;;;;;;;;;;;;;;;;;;5049356;28;19924;-72
2023/01/22 11:12:26;;;;;;;;;;;2.80;99.90;;;;;;5049359;28;20302;-70
2023/01/22 11:15:15;;;;;;;;;;;3.00;99.90;;;;;;5050164;28;20427;-70
2023/01/22 11:17:41;;;;;;;;;;;;;;;;;;5057451;28;19928;-70
2023/01/22 11:20:07;;;;;;;;;;;;;;;;;;5049195;28;19924;-70
2023/01/22 11:22:33;;;;;;;;;;;;;;;;;;5048865;28;19924;-70
2023/01/22 11:24:59;;;;;;;;;;;;;;;;;;5054530;28;20266;-70
2023/01/22 11:27:25;;;;;;;;;;;;;;;;;;5048613;28;19964;-70
2023/01/22 11:29:51;;;;;;;;;;;;;;;;;;5050181;28;19924;-70
2023/01/22 11:32:29;;;;;;;;;;;3.20;99.90;;;;;;5049868;28;19924;-70
2023/01/22 11:35:03;;;;;;;;;;;3.00;99.90;;;;;;5067317;28;19924;-70
2023/01/22 11:37:35;;;;;;;;;;;3.00;99.90;;;;;;5048353;28;19920;-70
2023/01/22 11:40:09;;;;;;;;;;;2.90;99.90;;;;;;5069587;28;19927;-70
2023/01/22 11:42:47;;;;;;;;;;;3.20;99.90;;;;;;5029498;28;19955;-70
2023/01/22 11:45:13;;;;;;;;;;;;;;;;;;5072956;28;20343;-70
2023/01/22 11:47:39;;;;;;;;;;;;;;;;;;5029735;28;19920;-70
2023/01/22 11:50:05;;;;;;;;;;;;;;;;;;5053752;28;19924;-70
2023/01/22 11:52:31;;;;;;;;;;;;;;;;;;5071900;28;19924;-70
2023/01/22 11:54:56;;;;;;;;;;;;;;;;;;5070857;28;20443;-70
2023/01/22 11:57:22;;;;;;;;;;;;;;;;;;5071300;28;19925;-70
2023/01/22 11:59:49;;;;;;;;;;;;;;;;;;5071108;28;19920;-71
2023/01/22 12:02:14;;;;;;;;;;;;;;;;;;5053388;28;20305;-70
2023/01/22 12:04:40;;;;;;;;;;;;;;;;;;5035260;28;19928;-70
2023/01/22 12:07:06;;;;;;;;;;;;;;;;;;5052723;28;19929;-70
2023/01/22 12:09:32;;;;;;;;;;;;;;;;;;5053136;28;19924;-70
2023/01/22 12:11:58;;;;;;;;;;;;;;;;;;5055025;28;19925;-71
2023/01/22 12:14:24;;;;;;;;;;;;;;;;;;5054179;28;19968;-70
2023/01/22 12:16:50;;;;;;;;;;;;;;;;;;5054053;28;20030;-71
2023/01/22 12:19:21;;;;;;;;;;;3.70;99.90;;;;;;5071955;28;19981;-71
2023/01/22 12:21:47;;;;;;;;;;;;;;;;;;5040095;28;19921;-71
2023/01/22 12:24:13;;;;;;;;;;;;;;;;;;5074782;28;19928;-71
2023/01/22 12:26:45;;;;;;;;;;;3.40;99.90;;;;;;5055285;28;19928;-71
2023/01/22 12:29:15;;;;;;;;;;;3.60;99.90;;;;;;5056836;28;19924;-71
2023/01/22 12:31:42;;;;;;;;;;;;;;;;;;5055895;28;20304;-71
2023/01/22 12:34:41;;;;;;;;;;;3.40;99.90;;;;;;5056916;28;19998;-71
2023/01/22 12:37:06;;;;;;;;;;;;;;;;;;5012417;28;19970;-71
2023/01/22 12:39:32;;;;;;;;;;;;;;;;;;5056876;28;19924;-70
2023/01/22 12:41:58;;;;;;;;;;;;;;;;;;5056631;28;19971;-70
2023/01/22 12:44:24;;;;;;;;;;;3.40;99.90;;;;;;5056586;28;20024;-71
2023/01/22 12:46:50;;;;;;;;;;;;;;;;;;5039270;28;19920;-71
2023/01/22 12:49:15;;;;;;;;;;;3.50;99.90;;;;;;5055855;28;19920;-71
2023/01/22 12:51:41;;;;;;;;;;;;;;;;;;5072751;28;19921;-71
2023/01/22 12:54:07;;;;;;;;;;;;;;;;;;5074178;28;20018;-70
2023/01/22 12:56:33;;;;;;;;;;;;;;;;;;5055656;28;19932;-71
2023/01/22 12:58:58;;;;;;;;;;;3.40;99.90;;;;;;5074054;28;19920;-70
2023/01/22 13:01:24;;;;;;;;;;;;;;;;;;5056010;28;19920;-71
2023/01/22 13:03:58;;;;;;;;;;;3.40;99.90;;;;;;5074141;28;20070;-71
2023/01/22 13:06:24;;;;;;;;;;;;;;;;;;5073665;28;19920;-70
2023/01/22 13:08:49;;;;;;;;;;;3.70;99.90;;;;;;5055922;28;19931;-71
2023/01/22 13:11:15;;;;;;;;;;;;;;;;;;5055616;28;19927;-71
2023/01/22 13:13:41;;;;;;;;;;;;;;;;;;5056147;28;19927;-71
2023/01/22 13:16:07;;;;;;;;;;;;;;;;;;5055477;28;20378;-70
2023/01/22 13:18:33;;;;;;;;;;;;;;;;;;5073842;28;19921;-71
2023/01/22 13:20:59;;;;;;;;;;;;;;;;;;5055603;28;19921;-71
2023/01/22 13:23:25;;;;;;;;;;;;;;;;;;5055725;28;20279;-71
2023/01/22 13:25:54;;;;;;;;;;;3.60;99.90;;;;;;5073053;28;20014;-71
2023/01/22 13:28:20;;;;;;;;;;;;;;;;;;5073425;28;20007;-71
2023/01/22 13:30:46;;;;;;;;;;;;;;;;;;5055478;28;20369;-71
2023/01/22 13:33:12;;;;;;;;;;;;;;;;;;5055035;28;19966;-71
2023/01/22 13:35:38;;;;;;;;;;;;;;;;;;5055132;28;20398;-71
2023/01/22 13:38:03;;;;;;;;;;;3.70;99.90;;;;;;5055155;28;19920;-71
2023/01/22 13:40:29;;;;;;;;;;;3.80;99.90;;;;;;5073501;28;19927;-71
2023/01/22 13:42:54;;;;;;;;;;;;;;;;;;5073445;28;19966;-71
2023/01/22 13:45:20;;;;;;;;;;;;;;;;;;5073035;28;19973;-71
2023/01/22 13:47:46;;;;;;;;;;;;;;;;;;5055563;28;19921;-71
2023/01/22 13:50:12;;;;;;;;;;;;;;;;;;5055532;28;19921;-71
2023/01/22 13:52:38;;;;;;;;;;;3.80;99.90;;;;;;5072898;28;19943;-71
2023/01/22 13:55:07;;;;;;;;;;;;;;;;;;5054819;28;19921;-71
2023/01/22 13:57:33;;;;;;;;;;;;;;;;;;5054999;28;19920;-70
2023/01/22 13:59:59;;;;;;;;;;;3.70;99.90;;;;;;5054126;28;20293;-71
2023/01/22 14:02:25;;;;;;;;;;;;;;;;;;5072823;28;19920;-71
2023/01/22 14:04:51;;;;;;;;;;;;;;;;;;5072849;28;20019;-71
2023/01/22 14:07:27;;;;;;;;;;;3.80;99.90;;;;;;5072936;28;19925;-70
2023/01/22 14:09:53;;;;;;;;;;;3.60;99.90;;;;;;5038313;28;19926;-71
2023/01/22 14:12:20;;;;;;;;;;;3.70;99.90;;;;;;5072930;28;20007;-71
2023/01/22 14:14:46;;;;;;;;;;;;;;;;;;5072736;28;20007;-71
2023/01/22 14:17:32;;;;;;;;;;;3.60;99.90;;;;;;5054479;28;20028;-70
2023/01/22 14:19:58;;;;;;;;;;;;;;;;;;5071388;28;19931;-71
2023/01/22 14:22:24;;;;;;;;;;;3.60;99.90;;;;;;5054517;28;19999;-71
2023/01/22 14:24:53;;;;;;;;;;;3.70;99.90;;;;;;5054548;28;19920;-71
2023/01/22 14:27:19;;;;;;;;;;;;;;;;;;5054610;28;19920;-71
2023/01/22 14:29:45;;;;;;;;;;;;;;;;;;5055091;28;20371;-71
2023/01/22 14:32:10;;;;;;;;;;;3.70;99.90;;;;;;5053617;28;19971;-71
2023/01/22 14:34:36;;;;;;;;;;;3.70;99.90;;;;;;5054740;28;19920;-71
2023/01/22 14:37:02;;;;;;;;;;;;;;;;;;5037392;28;19924;-70
2023/01/22 14:39:28;;;;;;;;;;;;;;;;;;5054388;28;19927;-70
2023/01/22 14:41:53;;;;;;;;;;;;;;;;;;5071112;28;19920;-71
2023/01/22 14:44:19;;;;;;;;;;;3.60;99.90;;;;;;5054138;28;20271;-71
2023/01/22 14:46:45;;;;;;;;;;;3.70;99.90;;;;;;5054016;28;19920;-71
2023/01/22 14:49:10;;;;;;;;;;;;;;;;;;5054330;28;19932;-71
2023/01/22 14:51:36;;;;;;;;;;;;;;;;;;5054241;28;20058;-71
2023/01/22 14:54:02;;;;;;;;;;;3.70;99.90;;;;;;5054241;28;19966;-71
2023/01/22 14:56:27;;;;;;;;;;;3.70;99.90;;;;;;5071893;28;19970;-71
2023/01/22 14:58:53;;;;;;;;;;;;;;;;;;5054506;28;19926;-71
2023/01/22 15:01:19;;;;;;;;;;;;;;;;;;5054320;28;19975;-71
2023/01/22 15:03:45;;;;;;;;;;;;;;;;;;5072079;28;19920;-71
2023/01/22 15:06:11;;;;;;;;;;;3.60;99.90;;;;;;5053876;28;19925;-71
2023/01/22 15:08:36;;;;;;;;;;;3.40;99.90;;;;;;5054086;28;19927;-71
2023/01/22 15:11:04;;;;;;;;;;;;;;;;;;5055513;28;19920;-71
2023/01/22 15:13:30;;;;;;;;;;;;;;;;;;5058248;28;20442;-71
2023/01/22 15:15:55;;;;;;;;;;;3.50;99.90;;;;;;5057826;28;19936;-72
2023/01/22 15:18:21;;;;;;;;;;;3.50;99.90;;;;;;5058456;28;19974;-71
2023/01/22 15:20:47;;;;;;;;;;;;;;;;;;5058091;28;19928;-71
2023/01/22 15:23:12;;;;;;;;;;;;;;;;;;5074801;28;19960;-71
2023/01/22 15:25:38;;;;;;;;;;;;;;;;;;5075807;28;20596;-71
2023/01/22 15:28:04;;;;;;;;;;;3.50;99.90;;;;;;5075887;28;19920;-71
2023/01/22 15:30:29;;;;;;;;;;;3.50;99.90;;;;;;5041277;28;20396;-70
2023/01/22 15:32:55;;;;;;;;;;;;;;;;;;5057561;28;20006;-71
2023/01/22 15:35:21;;;;;;;;;;;;;;;;;;5057647;28;20397;-71
2023/01/22 15:37:47;;;;;;;;;;;;;;;;;;5075770;28;20102;-71
2023/01/22 15:40:13;;;;;;;;;;;3.30;99.90;;;;;;5075647;28;20022;-71
2023/01/22 15:42:38;;;;;;;;;;;3.60;99.90;;;;;;5057576;28;19924;-71
2023/01/22 15:45:05;;;;;;;;;;;;;;;;;;5075618;28;19920;-71
2023/01/22 15:47:31;;;;;;;;;;;3.20;99.90;;;;;;5075509;28;19931;-71
2023/01/22 15:49:56;;;;;;;;;;;;;;;;;;5075531;28;20003;-71